Time;durP1;ratioP1;P1;durP2;ratioP2;P2;SDS_P1;SDS_P2;PMS_P1;PMS_P2;Temp;Humidity;BMP_temperature;BMP_pressure;BME280_temperature;BME280_humidity;BME280_pressure;Samples;Min_cycle;Max_cycle;Signal;HPM_P1;HPM_P2
2022/04/07 05:00:52;;;;;;;1.00;0.90;;;10.10;97.20;;;;;;1707830;29;20262;-70
2022/04/07 05:01:43;;;;;;;1.10;1.00;;;10.10;97.20;;;;;;1707767;29;20625;-69
2022/04/07 05:02:34;;;;;;;1.00;0.90;;;10.10;97.20;;;;;;1707786;29;20206;-70
2022/04/07 05:03:25;;;;;;;2.67;0.93;;;10.10;97.20;;;;;;1707746;29;20209;-69
2022/04/07 05:04:17;;;;;;;1.60;0.80;;;10.10;97.20;;;;;;1707598;29;20701;-70
2022/04/07 05:05:08;;;;;;;0.80;0.80;;;10.10;97.20;;;;;;1707786;29;20209;-69
2022/04/07 05:06:00;;;;;;;1.00;0.82;;;10.10;97.20;;;;;;1707758;28;20199;-69
2022/04/07 05:06:50;;;;;;;0.90;0.73;;;10.10;97.20;;;;;;1707815;29;20199;-70
2022/04/07 05:07:42;;;;;;;1.27;0.70;;;10.10;97.20;;;;;;1707698;29;20202;-69
2022/04/07 05:08:33;;;;;;;0.80;0.63;;;10.20;97.20;;;;;;1707494;29;20230;-70
2022/04/07 05:09:24;;;;;;;1.30;0.90;;;10.20;97.20;;;;;;1707568;29;20208;-69
2022/04/07 05:10:15;;;;;;;1.45;0.98;;;10.20;97.20;;;;;;1707571;29;20238;-70
2022/04/07 05:11:07;;;;;;;0.80;0.80;;;10.20;97.20;;;;;;1707681;29;20210;-69
2022/04/07 05:11:58;;;;;;;0.90;0.70;;;10.20;97.20;;;;;;1707616;29;20207;-69
2022/04/07 05:12:50;;;;;;;1.10;1.00;;;10.20;97.20;;;;;;1707687;29;20194;-69
2022/04/07 05:13:40;;;;;;;1.30;0.80;;;10.20;97.20;;;;;;1707461;29;20583;-69
2022/04/07 05:14:32;;;;;;;1.00;0.90;;;10.20;97.20;;;;;;1707753;29;20612;-69
2022/04/07 05:15:23;;;;;;;0.90;0.77;;;10.20;97.20;;;;;;1707619;29;20263;-69
2022/04/07 05:16:16;;;;;;;0.93;0.73;;;10.20;97.20;;;;;;1707716;29;20202;-69
2022/04/07 05:17:07;;;;;;;1.20;0.85;;;10.20;97.20;;;;;;1707659;29;20202;-69
2022/04/07 05:17:58;;;;;;;0.80;0.60;;;10.20;97.20;;;;;;1707629;29;20317;-69
2022/04/07 05:18:49;;;;;;;0.80;0.70;;;10.20;97.20;;;;;;1707316;29;20453;-70
2022/04/07 05:19:44;;;;;;;0.93;0.80;;;10.20;97.20;;;;;;1707646;29;20301;-69
2022/04/07 05:20:37;;;;;;;1.33;1.00;;;10.20;97.20;;;;;;1707620;29;20692;-70
2022/04/07 05:21:28;;;;;;;1.23;0.95;;;10.20;97.20;;;;;;1707752;29;20202;-70
2022/04/07 05:22:19;;;;;;;0.80;0.70;;;10.20;97.20;;;;;;1707751;29;20207;-70
2022/04/07 05:23:11;;;;;;;2.60;1.00;;;10.20;97.20;;;;;;1707616;29;20199;-69
2022/04/07 05:24:02;;;;;;;1.25;0.80;;;10.20;97.20;;;;;;1707491;29;20233;-69
2022/04/07 05:24:53;;;;;;;1.00;0.80;;;10.20;97.20;;;;;;1707651;29;20684;-69
2022/04/07 05:25:45;;;;;;;1.33;0.90;;;10.20;97.20;;;;;;1707582;29;20747;-70
2022/04/07 05:26:36;;;;;;;2.13;1.13;;;10.20;97.20;;;;;;1707586;29;20217;-69
2022/04/07 05:27:28;;;;;;;0.95;0.85;;;10.20;97.20;;;;;;1707566;29;20245;-69
2022/04/07 05:28:21;;;;;;;1.20;0.88;;;10.20;97.20;;;;;;1707377;29;20237;-69
2022/04/07 05:29:11;;;;;;;1.38;0.80;;;10.20;97.20;;;;;;1707605;29;20209;-70
2022/04/07 05:30:04;;;;;;;1.37;1.03;;;10.20;97.20;;;;;;1707311;28;20210;-70
2022/04/07 05:30:56;;;;;;;1.45;1.02;;;10.20;97.20;;;;;;1707258;29;20653;-69
2022/04/07 05:31:49;;;;;;;1.00;0.80;;;10.20;97.20;;;;;;1707501;29;20195;-69
2022/04/07 05:32:40;;;;;;;2.05;1.02;;;10.20;97.20;;;;;;1707535;29;20254;-69
2022/04/07 05:33:31;;;;;;;2.97;1.40;;;10.20;97.20;;;;;;1707527;29;20202;-67
2022/04/07 05:34:22;;;;;;;0.80;0.70;;;10.20;97.20;;;;;;1707479;29;20454;-69
2022/04/07 05:35:15;;;;;;;0.90;0.70;;;10.20;97.20;;;;;;1707490;29;20235;-69
2022/04/07 05:36:06;;;;;;;1.10;0.88;;;10.30;97.20;;;;;;1704586;29;20218;-69
2022/04/07 05:36:58;;;;;;;1.00;0.80;;;10.30;97.20;;;;;;1705878;29;20221;-69
2022/04/07 05:37:48;;;;;;;1.60;0.90;;;10.30;97.20;;;;;;1706267;29;20238;-70
2022/04/07 05:38:40;;;;;;;0.83;0.77;;;10.30;97.20;;;;;;1699807;29;20199;-70
2022/04/07 05:39:31;;;;;;;0.90;0.75;;;10.40;97.20;;;;;;1700665;29;20247;-70
2022/04/07 05:40:23;;;;;;;1.53;0.80;;;10.40;97.20;;;;;;1700720;29;20206;-69
2022/04/07 05:41:14;;;;;;;1.63;0.90;;;10.40;97.20;;;;;;1704394;29;20615;-70
2022/04/07 05:42:06;;;;;;;0.70;0.60;;;10.40;97.20;;;;;;1706101;28;20497;-69
2022/04/07 05:42:59;;;;;;;0.80;0.70;;;10.40;97.20;;;;;;1707096;29;20261;-69
2022/04/07 05:43:50;;;;;;;1.00;0.70;;;10.40;97.20;;;;;;1707185;29;20233;-70
2022/04/07 05:44:41;;;;;;;0.88;0.80;;;10.40;97.20;;;;;;1707479;29;20632;-70
2022/04/07 05:45:34;;;;;;;0.80;0.67;;;10.40;97.20;;;;;;1707438;29;20206;-70
2022/04/07 05:46:25;;;;;;;0.80;0.80;;;10.40;97.20;;;;;;1707394;29;20206;-69
2022/04/07 05:47:18;;;;;;;1.50;0.70;;;10.40;97.20;;;;;;1707404;28;20202;-69
2022/04/07 05:48:10;;;;;;;2.17;0.90;;;10.40;97.20;;;;;;1703543;29;20298;-68
2022/04/07 05:49:02;;;;;;;2.00;0.75;;;10.40;97.20;;;;;;1702305;29;20775;-68
2022/04/07 05:49:53;;;;;;;1.00;0.60;;;10.40;97.20;;;;;;1706690;28;20643;-68
2022/04/07 05:50:45;;;;;;;1.73;0.77;;;10.40;97.20;;;;;;1706327;29;20195;-68
2022/04/07 05:51:36;;;;;;;0.80;0.70;;;10.40;97.20;;;;;;1701776;29;20200;-69
2022/04/07 05:52:28;;;;;;;1.23;0.70;;;10.50;97.20;;;;;;1706378;29;20229;-68
2022/04/07 05:53:19;;;;;;;0.90;0.70;;;10.50;97.20;;;;;;1701965;29;20462;-68
2022/04/07 05:54:13;;;;;;;0.90;0.60;;;10.50;97.20;;;;;;1700762;29;20310;-68
2022/04/07 05:55:05;;;;;;;0.90;0.80;;;10.50;97.20;;;;;;1704504;29;20559;-68
2022/04/07 05:55:58;;;;;;;0.90;0.70;;;10.60;97.20;;;;;;1707287;28;20723;-68
2022/04/07 05:56:49;;;;;;;1.65;0.70;;;10.60;97.20;;;;;;1707403;29;20287;-68
2022/04/07 05:57:40;;;;;;;1.00;0.60;;;10.60;97.20;;;;;;1707297;29;20689;-68
2022/04/07 05:58:31;;;;;;;0.90;0.60;;;10.70;97.20;;;;;;1707128;29;20461;-68
2022/04/07 05:59:23;;;;;;;0.90;0.63;;;10.70;97.20;;;;;;1706828;29;20285;-68
2022/04/07 06:00:17;;;;;;;0.80;0.63;;;10.70;97.20;;;;;;1707282;29;20202;-68
2022/04/07 06:01:09;;;;;;;0.90;0.60;;;10.80;97.20;;;;;;1707366;29;20240;-68
2022/04/07 06:02:00;;;;;;;3.50;0.70;;;10.80;97.20;;;;;;1707338;29;20575;-68
2022/04/07 06:02:53;;;;;;;0.80;0.60;;;10.80;97.20;;;;;;1707336;29;20217;-68
2022/04/07 06:03:43;;;;;;;0.80;0.70;;;10.90;97.20;;;;;;1707266;29;20217;-68
2022/04/07 06:04:39;;;;;;;0.80;0.50;;;10.90;97.20;;;;;;1707210;29;20712;-68
2022/04/07 06:05:29;;;;;;;0.80;0.60;;;11.00;97.20;;;;;;1707335;29;20209;-68
2022/04/07 06:06:21;;;;;;;0.70;0.60;;;11.00;97.20;;;;;;1707406;29;20241;-68
2022/04/07 06:07:12;;;;;;;1.55;0.60;;;11.10;97.20;;;;;;1707238;29;20548;-68
2022/04/07 06:08:04;;;;;;;1.03;0.67;;;11.10;97.20;;;;;;1706947;29;20234;-69
2022/04/07 06:08:55;;;;;;;0.80;0.55;;;11.20;97.20;;;;;;1706996;29;20457;-68
2022/04/07 06:09:47;;;;;;;1.47;0.60;;;11.20;97.20;;;;;;1707324;29;20281;-68
2022/04/07 06:10:38;;;;;;;0.70;0.60;;;11.30;97.20;;;;;;1706978;29;20207;-68
2022/04/07 06:11:30;;;;;;;0.70;0.60;;;11.30;97.20;;;;;;1707152;29;20289;-68
2022/04/07 06:12:21;;;;;;;0.90;0.50;;;11.30;97.20;;;;;;1707289;29;20465;-68
2022/04/07 06:13:14;;;;;;;0.70;0.53;;;11.30;97.20;;;;;;1704054;29;20241;-68
2022/04/07 06:14:05;;;;;;;0.70;0.50;;;11.30;97.20;;;;;;1706843;29;20474;-68
2022/04/07 06:14:57;;;;;;;0.90;0.60;;;11.30;97.20;;;;;;1707194;28;20233;-68
2022/04/07 06:15:48;;;;;;;0.80;0.60;;;11.40;97.20;;;;;;1706067;28;20972;-68
2022/04/07 06:16:39;;;;;;;0.70;0.60;;;11.40;97.20;;;;;;1707255;29;20290;-68
2022/04/07 06:17:34;;;;;;;0.70;0.50;;;11.40;97.20;;;;;;1700572;29;20210;-68
2022/04/07 06:18:28;;;;;;;0.70;0.57;;;11.50;97.20;;;;;;1706201;29;20195;-68
2022/04/07 06:19:19;;;;;;;1.40;0.60;;;11.50;97.20;;;;;;1706719;29;20694;-68
2022/04/07 06:20:11;;;;;;;1.00;0.60;;;11.50;97.20;;;;;;1700640;29;20606;-68
2022/04/07 06:21:02;;;;;;;0.80;0.50;;;11.50;97.20;;;;;;1701661;29;20202;-67
2022/04/07 06:21:54;;;;;;;1.43;0.70;;;11.50;97.20;;;;;;1707349;29;20214;-68
2022/04/07 06:22:45;;;;;;;0.80;0.60;;;11.50;97.20;;;;;;1707215;29;20812;-68
2022/04/07 06:23:37;;;;;;;0.80;0.50;;;11.60;97.20;;;;;;1707075;29;20202;-68
2022/04/07 06:24:27;;;;;;;0.88;0.50;;;11.60;97.20;;;;;;1707241;29;20419;-68
2022/04/07 06:25:19;;;;;;;0.70;0.50;;;11.60;97.20;;;;;;1707215;29;20207;-67
2022/04/07 06:26:10;;;;;;;0.98;0.60;;;11.70;97.20;;;;;;1707302;29;20206;-68
2022/04/07 06:27:02;;;;;;;0.90;0.60;;;11.70;97.20;;;;;;1707147;29;20282;-68
2022/04/07 06:27:53;;;;;;;1.40;0.65;;;11.70;97.20;;;;;;1704678;29;20454;-68
2022/04/07 06:28:45;;;;;;;2.90;0.60;;;11.70;97.20;;;;;;1706850;29;20205;-68
2022/04/07 06:29:36;;;;;;;0.80;0.60;;;11.70;97.20;;;;;;1706802;29;20199;-68
2022/04/07 06:30:27;;;;;;;0.90;0.60;;;11.70;97.20;;;;;;1706774;29;20206;-68
2022/04/07 06:31:18;;;;;;;1.10;0.68;;;11.70;97.20;;;;;;1706389;29;20214;-68
2022/04/07 06:32:10;;;;;;;0.70;0.60;;;11.60;97.20;;;;;;1706255;29;20299;-68
2022/04/07 06:33:01;;;;;;;0.77;0.50;;;11.60;97.20;;;;;;1707217;29;20206;-68
2022/04/07 06:33:54;;;;;;;1.47;0.60;;;11.60;97.20;;;;;;1707139;29;20218;-68
2022/04/07 06:34:45;;;;;;;0.90;0.50;;;11.60;97.20;;;;;;1707067;29;20453;-69
2022/04/07 06:35:36;;;;;;;1.83;0.60;;;11.50;97.20;;;;;;1704017;29;20290;-69
2022/04/07 06:36:27;;;;;;;0.70;0.50;;;11.50;97.20;;;;;;1706404;29;20198;-69
2022/04/07 06:37:19;;;;;;;0.80;0.50;;;11.50;97.20;;;;;;1706525;29;20209;-69
2022/04/07 06:38:09;;;;;;;0.80;0.60;;;11.50;97.20;;;;;;1706206;29;20206;-69
2022/04/07 06:39:01;;;;;;;0.77;0.60;;;11.50;97.20;;;;;;1706529;29;20195;-68
2022/04/07 06:39:58;;;;;;;2.05;0.70;;;11.50;97.20;;;;;;1706436;29;20210;-69
2022/04/07 06:40:50;;;;;;;1.23;0.80;;;11.50;97.20;;;;;;1706887;29;20203;-69
2022/04/07 06:41:40;;;;;;;1.20;0.65;;;11.50;97.20;;;;;;1708078;28;20631;-68
2022/04/07 06:42:32;;;;;;;1.00;0.60;;;11.50;97.20;;;;;;1709327;28;20581;-69
2022/04/07 06:43:23;;;;;;;0.77;0.60;;;11.50;97.20;;;;;;1709391;29;20236;-69
2022/04/07 06:44:14;;;;;;;1.00;0.60;;;11.50;97.20;;;;;;1709220;29;20230;-68
2022/04/07 06:45:06;;;;;;;0.80;0.60;;;11.50;97.20;;;;;;1709416;28;20210;-69
2022/04/07 06:45:58;;;;;;;1.13;0.90;;;11.60;97.20;;;;;;1709305;28;20194;-68
2022/04/07 06:46:50;;;;;;;1.63;0.90;;;11.60;97.20;;;;;;1709397;29;20240;-69
2022/04/07 06:47:42;;;;;;;1.00;0.60;;;11.60;97.20;;;;;;1709360;28;20257;-69
2022/04/07 06:48:33;;;;;;;0.85;0.60;;;11.60;97.20;;;;;;1709028;29;20206;-69
2022/04/07 06:49:26;;;;;;;1.10;0.50;;;11.60;97.20;;;;;;1708789;28;20277;-69
2022/04/07 06:50:19;;;;;;;1.30;0.60;;;11.60;97.20;;;;;;1709082;28;20234;-69
2022/04/07 06:51:11;;;;;;;1.30;0.90;;;11.60;97.20;;;;;;1709312;29;20727;-69
2022/04/07 06:52:02;;;;;;;1.05;0.95;;;11.50;97.20;;;;;;1709280;28;20242;-70
2022/04/07 06:52:55;;;;;;;0.80;0.60;;;11.50;97.20;;;;;;1709258;29;20226;-69
2022/04/07 06:53:46;;;;;;;2.00;1.20;;;11.50;97.20;;;;;;1709315;28;20206;-68
2022/04/07 06:54:37;;;;;;;1.73;0.70;;;11.50;97.20;;;;;;1709005;29;20205;-69
2022/04/07 06:55:28;;;;;;;1.00;0.80;;;11.50;97.20;;;;;;1709183;28;20223;-68
2022/04/07 06:56:20;;;;;;;1.53;0.70;;;11.50;97.20;;;;;;1709093;29;20213;-70
2022/04/07 06:57:11;;;;;;;1.00;0.70;;;11.50;97.20;;;;;;1709360;29;20901;-69
2022/04/07 06:58:06;;;;;;;0.70;0.57;;;11.50;97.20;;;;;;1709018;28;20205;-70
2022/04/07 06:58:56;;;;;;;1.88;0.50;;;11.50;97.20;;;;;;1709041;29;20210;-69
2022/04/07 06:59:48;;;;;;;0.80;0.50;;;11.50;97.20;;;;;;1709231;28;20680;-68
2022/04/07 07:00:45;;;;;;;0.80;0.50;;;11.50;97.20;;;;;;1708980;29;20566;-69
2022/04/07 07:01:36;;;;;;;1.58;0.65;;;11.50;97.20;;;;;;1709223;28;20420;-69
2022/04/07 07:02:27;;;;;;;2.10;0.63;;;11.50;97.20;;;;;;1709363;28;20206;-68
2022/04/07 07:03:19;;;;;;;0.80;0.60;;;11.50;97.20;;;;;;1709275;29;20202;-68
2022/04/07 07:04:10;;;;;;;0.98;0.60;;;11.60;97.20;;;;;;1709223;29;20277;-69
2022/04/07 07:05:08;;;;;;;0.85;0.60;;;11.60;97.20;;;;;;1709257;29;20209;-69
2022/04/07 07:06:02;;;;;;;0.80;0.65;;;11.70;97.20;;;;;;1708732;29;20209;-68
2022/04/07 07:06:53;;;;;;;1.15;0.70;;;11.80;97.20;;;;;;1708726;29;20206;-68
2022/04/07 07:07:45;;;;;;;1.20;0.70;;;11.80;97.20;;;;;;1712516;28;20254;-68
2022/04/07 07:08:40;;;;;;;1.10;0.70;;;11.80;97.20;;;;;;1711264;28;20977;-69
2022/04/07 07:09:31;;;;;;;1.08;0.70;;;11.80;97.20;;;;;;1708469;29;20238;-69
2022/04/07 07:10:25;;;;;;;0.80;0.60;;;11.80;97.20;;;;;;1708937;28;20209;-68
2022/04/07 07:11:17;;;;;;;0.95;0.60;;;11.80;97.20;;;;;;1706764;29;20579;-68
2022/04/07 07:12:10;;;;;;;1.50;0.80;;;11.80;97.20;;;;;;1708874;29;20217;-69
2022/04/07 07:13:00;;;;;;;1.35;1.25;;;11.80;97.20;;;;;;1709103;29;20269;-69
2022/04/07 07:13:52;;;;;;;1.90;1.30;;;11.80;97.20;;;;;;1709130;28;20218;-69
2022/04/07 07:14:43;;;;;;;1.30;0.80;;;11.90;97.20;;;;;;1709248;29;20221;-69
2022/04/07 07:15:34;;;;;;;1.40;0.60;;;12.00;97.20;;;;;;1709258;29;20212;-69
2022/04/07 07:16:26;;;;;;;1.63;1.20;;;12.00;97.20;;;;;;1709218;29;20237;-68
2022/04/07 07:17:18;;;;;;;1.10;0.90;;;12.20;97.20;;;;;;1707843;29;20206;-68
2022/04/07 07:18:09;;;;;;;1.15;0.90;;;12.30;97.20;;;;;;1708779;29;20213;-68
2022/04/07 07:19:01;;;;;;;1.00;0.70;;;12.40;97.20;;;;;;1709114;29;20657;-68
2022/04/07 07:19:52;;;;;;;1.67;0.80;;;12.60;97.20;;;;;;1708931;29;20199;-68
2022/04/07 07:20:45;;;;;;;1.20;0.60;;;12.70;97.20;;;;;;1709457;29;20199;-67
2022/04/07 07:21:36;;;;;;;2.17;0.60;;;12.80;97.20;;;;;;1708975;28;20221;-68
2022/04/07 07:22:28;;;;;;;0.90;0.70;;;12.90;97.20;;;;;;1709240;28;20224;-68
2022/04/07 07:23:19;;;;;;;1.00;0.60;;;13.10;97.20;;;;;;1709924;28;20209;-68
2022/04/07 07:24:11;;;;;;;1.10;0.60;;;13.20;97.20;;;;;;1710836;28;20310;-68
2022/04/07 07:25:02;;;;;;;1.00;0.65;;;13.20;97.20;;;;;;1709258;29;20434;-68
2022/04/07 07:25:54;;;;;;;1.02;0.70;;;13.30;97.20;;;;;;1709201;29;20198;-68
2022/04/07 07:26:45;;;;;;;2.58;0.65;;;13.30;97.20;;;;;;1709267;29;20215;-68
2022/04/07 07:27:37;;;;;;;1.27;0.60;;;13.30;97.20;;;;;;1709192;29;20286;-68
2022/04/07 07:28:28;;;;;;;0.80;0.50;;;13.30;97.20;;;;;;1708910;28;20446;-68
2022/04/07 07:29:20;;;;;;;0.90;0.67;;;13.30;97.20;;;;;;1708358;28;20654;-69
2022/04/07 07:30:12;;;;;;;1.23;0.65;;;13.40;97.20;;;;;;1709134;28;20449;-68
2022/04/07 07:31:05;;;;;;;0.70;0.50;;;13.40;97.20;;;;;;1708813;28;20208;-68
2022/04/07 07:31:55;;;;;;;0.70;0.60;;;13.40;97.20;;;;;;1708507;28;20211;-68
2022/04/07 07:32:49;;;;;;;0.70;0.60;;;13.50;97.20;;;;;;1708502;28;20230;-68
2022/04/07 07:33:39;;;;;;;0.80;0.60;;;13.50;97.20;;;;;;1708157;29;20837;-68
2022/04/07 07:34:31;;;;;;;0.80;0.60;;;13.50;97.20;;;;;;1708874;29;20685;-68
2022/04/07 07:35:23;;;;;;;1.02;0.50;;;13.50;97.20;;;;;;1709203;29;20202;-68
2022/04/07 07:36:16;;;;;;;1.10;0.70;;;13.50;97.20;;;;;;1709177;29;20233;-68
2022/04/07 07:37:07;;;;;;;1.70;0.80;;;13.60;97.20;;;;;;1709128;29;20210;-68
2022/04/07 07:38:00;;;;;;;1.10;0.70;;;13.70;97.20;;;;;;1709271;29;20905;-68
2022/04/07 07:38:51;;;;;;;0.98;0.68;;;13.70;97.20;;;;;;1709213;29;20203;-68
2022/04/07 07:39:43;;;;;;;0.80;0.60;;;13.80;97.20;;;;;;1708932;29;20277;-68
2022/04/07 07:40:34;;;;;;;1.10;0.60;;;13.90;97.20;;;;;;1709201;29;20557;-68
2022/04/07 07:41:26;;;;;;;0.90;0.60;;;13.90;97.20;;;;;;1709241;29;20639;-68
2022/04/07 07:42:17;;;;;;;0.80;0.60;;;14.00;97.20;;;;;;1709275;29;20576;-71
2022/04/07 07:43:09;;;;;;;0.80;0.50;;;14.00;97.20;;;;;;1709290;29;20206;-68
2022/04/07 07:44:00;;;;;;;0.90;0.70;;;14.10;97.20;;;;;;1709091;29;20222;-68
2022/04/07 07:44:52;;;;;;;1.00;0.60;;;14.10;97.20;;;;;;1709260;29;20202;-68
2022/04/07 07:45:43;;;;;;;0.90;0.50;;;14.10;97.20;;;;;;1709098;28;20210;-68
2022/04/07 07:46:34;;;;;;;0.80;0.63;;;14.00;97.20;;;;;;1709174;29;20206;-68
2022/04/07 07:47:25;;;;;;;1.70;0.60;;;14.00;97.20;;;;;;1709030;29;20548;-68
2022/04/07 07:48:18;;;;;;;1.00;0.60;;;13.80;97.20;;;;;;1708855;28;20210;-68
2022/04/07 07:49:09;;;;;;;0.75;0.57;;;13.70;97.20;;;;;;1708985;29;20586;-68
2022/04/07 07:50:01;;;;;;;1.10;0.60;;;13.60;97.20;;;;;;1709124;28;20632;-68
2022/04/07 07:50:51;;;;;;;0.80;0.60;;;13.50;97.20;;;;;;1709171;29;20209;-68
2022/04/07 07:51:45;;;;;;;1.00;0.60;;;13.40;97.20;;;;;;1709027;29;20229;-68
2022/04/07 07:52:35;;;;;;;1.00;0.70;;;13.30;97.20;;;;;;1709182;29;20460;-68
2022/04/07 07:53:27;;;;;;;0.70;0.60;;;13.20;97.20;;;;;;1708299;28;20245;-68
2022/04/07 07:54:18;;;;;;;2.65;0.80;;;13.10;97.20;;;;;;1707998;29;20849;-68
2022/04/07 07:55:10;;;;;;;1.73;0.60;;;13.10;97.20;;;;;;1708229;29;20660;-68
2022/04/07 07:56:01;;;;;;;1.13;0.70;;;13.10;97.20;;;;;;1708060;29;20202;-68
2022/04/07 07:56:54;;;;;;;0.90;0.60;;;13.10;97.20;;;;;;1708140;29;20294;-68
2022/04/07 07:57:45;;;;;;;0.95;0.70;;;13.10;97.20;;;;;;1708117;29;20442;-68
2022/04/07 07:58:37;;;;;;;2.20;0.70;;;13.00;97.20;;;;;;1707860;29;20253;-68
2022/04/07 07:59:27;;;;;;;0.93;0.77;;;13.00;97.20;;;;;;1707850;29;20198;-68
2022/04/07 08:00:19;;;;;;;2.30;0.70;;;13.00;97.20;;;;;;1707722;29;20198;-68
2022/04/07 08:01:10;;;;;;;1.25;0.70;;;12.90;97.20;;;;;;1708154;29;20207;-68
2022/04/07 08:02:02;;;;;;;0.93;0.57;;;12.90;97.20;;;;;;1708128;29;20282;-68
2022/04/07 08:02:52;;;;;;;0.90;0.70;;;12.90;97.20;;;;;;1708076;29;20210;-68
2022/04/07 08:03:44;;;;;;;0.70;0.60;;;12.80;97.20;;;;;;1708107;29;20206;-68
2022/04/07 08:04:35;;;;;;;0.90;0.60;;;12.80;97.20;;;;;;1707789;29;20214;-68
2022/04/07 08:05:27;;;;;;;0.90;0.60;;;12.80;97.20;;;;;;1707952;29;20226;-68
2022/04/07 08:06:18;;;;;;;1.50;0.75;;;12.80;97.20;;;;;;1707832;29;20211;-68
2022/04/07 08:07:11;;;;;;;1.20;0.70;;;12.70;97.20;;;;;;1708102;29;20242;-68
2022/04/07 08:08:02;;;;;;;1.65;0.60;;;12.70;97.20;;;;;;1707731;29;20451;-68
2022/04/07 08:08:53;;;;;;;0.90;0.65;;;12.80;97.20;;;;;;1708087;28;20724;-67
2022/04/07 08:09:44;;;;;;;1.42;0.60;;;12.80;97.20;;;;;;1707533;29;20194;-67
2022/04/07 08:10:36;;;;;;;0.83;0.60;;;12.80;97.20;;;;;;1707995;29;20297;-67
2022/04/07 08:11:27;;;;;;;1.17;0.80;;;12.90;97.20;;;;;;1707834;29;20688;-67
2022/04/07 08:12:19;;;;;;;1.07;0.60;;;12.90;97.20;;;;;;1708035;29;20712;-67
2022/04/07 08:13:09;;;;;;;1.17;0.70;;;12.90;97.20;;;;;;1708036;29;20206;-67
2022/04/07 08:14:02;;;;;;;0.77;0.53;;;13.00;97.20;;;;;;1707927;29;20317;-67
2022/04/07 08:14:53;;;;;;;0.80;0.50;;;13.10;97.20;;;;;;1708057;29;20442;-67
2022/04/07 08:15:45;;;;;;;0.90;0.68;;;13.20;97.20;;;;;;1708047;29;20336;-67
2022/04/07 08:16:36;;;;;;;1.15;0.75;;;13.30;97.20;;;;;;1707756;29;20689;-67
2022/04/07 08:17:28;;;;;;;1.30;0.70;;;13.40;97.20;;;;;;1707911;29;20673;-67
2022/04/07 08:18:19;;;;;;;1.15;0.60;;;13.40;97.20;;;;;;1707658;28;20210;-67
2022/04/07 08:19:11;;;;;;;1.20;0.60;;;13.50;97.20;;;;;;1707810;29;20221;-67
2022/04/07 08:20:02;;;;;;;1.33;0.60;;;13.50;97.20;;;;;;1701403;29;20196;-67
2022/04/07 08:20:54;;;;;;;1.60;0.60;;;13.50;97.20;;;;;;1701517;29;20209;-67
2022/04/07 08:21:45;;;;;;;2.65;0.70;;;13.50;97.20;;;;;;1701462;29;20206;-67
2022/04/07 08:22:38;;;;;;;1.03;0.70;;;13.60;97.20;;;;;;1701325;29;20207;-67
2022/04/07 08:23:29;;;;;;;1.20;0.80;;;13.60;97.20;;;;;;1701369;29;20211;-67
2022/04/07 08:24:22;;;;;;;1.30;0.70;;;13.60;97.20;;;;;;1701361;29;20216;-67
2022/04/07 08:25:13;;;;;;;1.70;0.80;;;13.70;97.20;;;;;;1701363;29;20294;-67
2022/04/07 08:26:04;;;;;;;2.50;0.70;;;13.70;97.20;;;;;;1702434;29;20213;-67
2022/04/07 08:26:55;;;;;;;2.22;0.90;;;13.80;97.20;;;;;;1707848;29;20462;-68
2022/04/07 08:27:47;;;;;;;1.87;0.73;;;13.90;97.20;;;;;;1708104;29;20226;-67
2022/04/07 08:28:38;;;;;;;3.60;0.70;;;14.00;97.20;;;;;;1707571;29;20206;-67
2022/04/07 08:29:30;;;;;;;2.03;0.80;;;14.00;97.20;;;;;;1707608;29;20584;-67
2022/04/07 08:30:21;;;;;;;0.80;0.60;;;14.10;97.20;;;;;;1707937;29;20246;-67
2022/04/07 08:31:13;;;;;;;3.47;0.80;;;14.20;97.20;;;;;;1707966;29;20302;-67
2022/04/07 08:32:04;;;;;;;1.70;0.55;;;14.20;97.20;;;;;;1707945;29;20638;-67
2022/04/07 08:32:56;;;;;;;1.27;0.60;;;14.20;97.20;;;;;;1708000;28;20257;-67
2022/04/07 08:33:47;;;;;;;0.93;0.60;;;14.20;97.20;;;;;;1707865;29;20202;-67
2022/04/07 08:34:39;;;;;;;1.73;0.60;;;14.20;97.20;;;;;;1707953;29;20229;-67
2022/04/07 08:35:29;;;;;;;0.95;0.60;;;14.20;97.20;;;;;;1707922;29;20853;-67
2022/04/07 08:36:21;;;;;;;1.20;0.60;;;14.20;97.20;;;;;;1707692;29;20234;-67
2022/04/07 08:37:13;;;;;;;1.10;0.70;;;14.20;97.20;;;;;;1707779;29;20450;-67
2022/04/07 08:38:05;;;;;;;1.00;0.50;;;14.20;97.20;;;;;;1707677;29;20206;-68
2022/04/07 08:38:57;;;;;;;0.90;0.70;;;14.20;97.20;;;;;;1707809;29;20206;-67
2022/04/07 08:39:49;;;;;;;1.75;0.60;;;14.10;97.20;;;;;;1707690;29;20207;-67
2022/04/07 08:40:42;;;;;;;0.80;0.70;;;14.10;97.20;;;;;;1707591;29;20197;-67
2022/04/07 08:41:34;;;;;;;1.58;0.60;;;14.10;97.20;;;;;;1707843;29;20599;-67
2022/04/07 08:42:27;;;;;;;0.70;0.60;;;14.10;97.20;;;;;;1707983;29;20207;-68
2022/04/07 08:43:18;;;;;;;0.90;0.57;;;14.10;97.20;;;;;;1707799;29;20207;-67
2022/04/07 08:44:10;;;;;;;1.92;0.63;;;14.10;97.20;;;;;;1707823;29;20603;-67
2022/04/07 08:45:02;;;;;;;1.83;0.70;;;14.10;97.20;;;;;;1707816;29;20213;-67
2022/04/07 08:45:54;;;;;;;2.88;0.65;;;14.20;97.20;;;;;;1707844;29;20249;-67
2022/04/07 08:46:51;;;;;;;1.55;0.50;;;14.20;97.20;;;;;;1707868;29;20684;-67
2022/04/07 08:47:47;;;;;;;1.30;0.60;;;14.30;97.20;;;;;;1707653;29;20658;-67
2022/04/07 08:48:42;;;;;;;1.70;0.68;;;14.40;97.20;;;;;;1707498;29;20206;-67
2022/04/07 08:49:37;;;;;;;1.65;0.50;;;14.50;97.20;;;;;;1707528;29;20199;-67
2022/04/07 08:50:33;;;;;;;1.00;0.90;;;14.70;97.20;;;;;;1707924;29;20207;-67
2022/04/07 08:51:28;;;;;;;0.70;0.50;;;14.80;97.20;;;;;;1707607;29;20297;-67
2022/04/07 08:52:19;;;;;;;0.93;0.60;;;15.10;97.20;;;;;;1707752;29;20713;-67
2022/04/07 08:53:13;;;;;;;0.90;0.60;;;15.20;97.20;;;;;;1707779;29;20217;-67
2022/04/07 08:54:04;;;;;;;0.90;0.55;;;15.40;97.20;;;;;;1707522;29;20265;-67
2022/04/07 08:54:56;;;;;;;0.97;0.57;;;15.50;97.20;;;;;;1707558;29;20206;-67
2022/04/07 08:55:47;;;;;;;1.75;0.60;;;15.60;97.20;;;;;;1707868;29;20845;-67
2022/04/07 08:56:39;;;;;;;1.43;0.70;;;15.70;97.20;;;;;;1707652;29;20663;-67
2022/04/07 08:57:31;;;;;;;1.40;0.40;;;15.80;97.20;;;;;;1707851;29;20217;-67
2022/04/07 08:58:22;;;;;;;1.50;0.50;;;15.80;97.20;;;;;;1707484;29;20205;-67
2022/04/07 08:59:13;;;;;;;0.80;0.50;;;15.80;97.20;;;;;;1707717;29;20663;-69
2022/04/07 09:00:07;;;;;;;1.60;0.40;;;15.70;97.20;;;;;;1707671;29;20198;-67
2022/04/07 09:00:59;;;;;;;1.25;0.50;;;15.70;97.20;;;;;;1707751;28;20245;-67
2022/04/07 09:01:51;;;;;;;1.15;0.60;;;15.70;97.20;;;;;;1707787;29;20562;-67
2022/04/07 09:02:43;;;;;;;0.80;0.50;;;15.60;97.20;;;;;;1707727;29;20206;-67
2022/04/07 09:03:35;;;;;;;0.65;0.40;;;15.50;97.20;;;;;;1707532;29;20611;-68
2022/04/07 09:04:29;;;;;;;0.98;0.60;;;15.40;97.20;;;;;;1707431;28;20206;-67
2022/04/07 09:05:24;;;;;;;0.90;0.60;;;15.30;97.20;;;;;;1707331;29;20282;-67
2022/04/07 09:06:19;;;;;;;0.70;0.50;;;15.20;97.20;;;;;;1707684;29;20206;-68
2022/04/07 09:07:13;;;;;;;0.70;0.45;;;15.00;97.20;;;;;;1707552;29;20206;-68
2022/04/07 09:08:05;;;;;;;0.95;0.50;;;14.90;97.20;;;;;;1707017;29;20590;-68
2022/04/07 09:09:10;;;;;;;0.70;0.50;;;14.80;97.20;;;;;;1706953;29;20206;-68
2022/04/07 09:10:03;;;;;;;1.33;0.50;;;14.70;97.20;;;;;;1707037;29;20206;-68
2022/04/07 09:10:55;;;;;;;0.80;0.50;;;14.50;97.20;;;;;;1707564;29;20222;-68
2022/04/07 09:11:46;;;;;;;0.70;0.50;;;14.40;97.20;;;;;;1707466;29;20233;-68
2022/04/07 09:12:40;;;;;;;0.80;0.50;;;14.40;97.20;;;;;;1707595;28;20677;-67
2022/04/07 09:13:32;;;;;;;0.80;0.50;;;14.30;97.20;;;;;;1707653;29;20457;-68
2022/04/07 09:14:24;;;;;;;3.00;0.63;;;14.30;97.20;;;;;;1707668;29;20575;-68
2022/04/07 09:15:15;;;;;;;0.80;0.50;;;14.30;97.20;;;;;;1707339;28;20736;-68
2022/04/07 09:16:11;;;;;;;1.60;0.50;;;14.30;97.20;;;;;;1706986;29;20203;-67
2022/04/07 09:17:04;;;;;;;0.80;0.50;;;14.30;97.20;;;;;;1707408;29;20353;-68
2022/04/07 09:17:55;;;;;;;0.73;0.50;;;14.30;97.20;;;;;;1707603;29;20206;-68
2022/04/07 09:18:48;;;;;;;0.60;0.40;;;14.40;97.20;;;;;;1707159;29;20198;-67
2022/04/07 09:19:39;;;;;;;1.00;0.50;;;14.40;97.20;;;;;;1707371;28;20666;-68
2022/04/07 09:20:30;;;;;;;1.00;0.50;;;14.40;97.20;;;;;;1707014;29;20602;-69
2022/04/07 09:21:24;;;;;;;0.90;0.50;;;14.40;97.20;;;;;;1706840;29;20210;-68
2022/04/07 09:22:16;;;;;;;0.98;0.50;;;14.30;97.20;;;;;;1706872;29;20217;-68
2022/04/07 09:23:12;;;;;;;2.92;0.60;;;14.30;97.20;;;;;;1707000;29;20234;-69
2022/04/07 09:24:07;;;;;;;0.70;0.50;;;14.30;97.20;;;;;;1706928;29;20222;-68
2022/04/07 09:25:03;;;;;;;0.93;0.50;;;14.20;97.20;;;;;;1707037;29;20225;-68
2022/04/07 09:25:55;;;;;;;1.80;0.57;;;14.20;97.20;;;;;;1706982;29;20187;-69
2022/04/07 09:26:47;;;;;;;0.75;0.50;;;14.10;97.20;;;;;;1704691;29;20249;-68
2022/04/07 09:27:41;;;;;;;0.70;0.40;;;14.10;97.20;;;;;;1706877;29;20199;-69
2022/04/07 09:28:32;;;;;;;0.75;0.45;;;14.00;97.20;;;;;;1706604;28;20211;-68
2022/04/07 09:29:36;;;;;;;1.80;0.50;;;14.00;97.20;;;;;;1706790;29;20313;-68
2022/04/07 09:30:36;;;;;;;0.90;0.60;;;14.00;97.20;;;;;;1707014;29;20206;-68
2022/04/07 09:31:28;;;;;;;0.80;0.50;;;13.90;97.20;;;;;;1707562;29;20282;-68